This is the latest recevied weather packets stored in our database for station/object I0UVN-10. If no packets are shown the sender has not sent any weather packets the latest 10 day(s).
| Time | Temp. | Humidity | Pressure | Rain* | Wind** | Luminosity | Snow |
|---|---|---|---|---|---|---|---|
| 1788426034 | 29.44° C | 50% | 1021.7 hPa | - | - | - | - |
| 1788424834 | 28.89° C | 51% | 1021.6 hPa | - | - | - | - |
| 1788423634 | 28.33° C | 53% | 1021.4 hPa | - | - | - | - |
| 1788422434 | 28.89° C | 52% | 1021.3 hPa | - | - | - | - |
| 1788421234 | 28.89° C | 50% | 1021.2 hPa | - | - | - | - |
| 1788420034 | 28.33° C | 49% | 1021.1 hPa | - | - | - | - |
| 1788418834 | 28.33° C | 49% | 1021.1 hPa | - | - | - | - |
| 1788417633 | 27.78° C | 49% | 1021 hPa | - | - | - | - |
| 1788416433 | 27.22° C | 49% | 1021 hPa | - | - | - | - |
| 1788415233 | 27.22° C | 50% | 1020.9 hPa | - | - | - | - |
| 1788414033 | 27.22° C | 51% | 1020.9 hPa | - | - | - | - |
| 1788412833 | 27.78° C | 50% | 1020.8 hPa | - | - | - | - |
| 1788411633 | 27.22° C | 50% | 1020.7 hPa | - | - | - | - |
| 1788410432 | 27.22° C | 48% | 1020.5 hPa | - | - | - | - |
| 1788409232 | 27.22° C | 49% | 1020.4 hPa | - | - | - | - |
| 1788408031 | 27.22° C | 49% | 1020.3 hPa | - | - | - | - |
| 1788406831 | 27.22° C | 50% | 1020.4 hPa | - | - | - | - |
| 1788405631 | 27.22° C | 50% | 1020.4 hPa | - | - | - | - |
| 1788405561 | 27.22° C | 50% | 1020.6 hPa | - | - | - | - |
| 1788404431 | 27.22° C | 50% | 1020.6 hPa | - | - | - | - |
| 1788404235 | 27.22° C | 52% | 1020.9 hPa | - | - | - | - |
| 1788403571 | 27.22° C | 52% | 1021.1 hPa | - | - | - | - |
| 1788403231 | 26.67° C | 50% | 1020.6 hPa | - | - | - | - |
| 1788402338 | 27.22° C | 54% | 1021.1 hPa | - | - | - | - |
| 1788402031 | 26.67° C | 51% | 1020.8 hPa | - | - | - | - |
* Rain since midnight (hover to see other rain measurements)
** Current wind speed in m/s (hover to see current wind gust speed)